DEMHO EDLW-EDDG
Flight info
| Callsign | DEMHO |
|---|---|
| Flight time | N/A |
| Altitude | |
| Route | DCT N |
| Aircraft | C172 |
Departure
| Time | 2026-04-30 20:07 |
|---|---|
| Airport | Dortmund Airport (EDLW) |
Arrival
| Time | N/A |
|---|---|
| Airport | Münster Osnabrück Airport (EDDG) |
| Time | Latitude | Longitude | Altitude | Speed | Heading |
|---|---|---|---|---|---|
| 2026-04-30 19:55 | 51.51219 | 7.60460 | 457 ft | 0 kts | 197° |
| 2026-04-30 20:01 | 51.51158 | 7.60226 | 456 ft | 15 kts | 240° |
| 2026-04-30 20:01 | 51.51188 | 7.60156 | 450 ft | 0 kts | 22° |
| 2026-04-30 20:01 | 51.51204 | 7.60185 | 447 ft | 7 kts | 64° |
| 2026-04-30 20:02 | 51.51307 | 7.60483 | 437 ft | 22 kts | 60° |
| 2026-04-30 20:02 | 51.51358 | 7.60619 | 438 ft | 12 kts | 58° |
| 2026-04-30 20:03 | 51.51452 | 7.60894 | 427 ft | 21 kts | 59° |
| 2026-04-30 20:03 | 51.51527 | 7.61060 | 427 ft | 11 kts | 351° |
| 2026-04-30 20:03 | 51.51568 | 7.60940 | 418 ft | 16 kts | 251° |
| 2026-04-30 20:03 | 51.51525 | 7.60688 | 411 ft | 10 kts | 283° |
| 2026-04-30 20:04 | 51.51528 | 7.60679 | 416 ft | 0 kts | 294° |
| 2026-04-30 20:05 | 51.51545 | 7.60629 | 415 ft | 16 kts | 323° |
| 2026-04-30 20:05 | 51.51662 | 7.60725 | 417 ft | 30 kts | 62° |
| 2026-04-30 20:06 | 51.51844 | 7.61229 | 448 ft | 63 kts | 61° |
| 2026-04-30 20:06 | 51.52077 | 7.61895 | 575 ft | 72 kts | 64° |
| 2026-04-30 20:06 | 51.52338 | 7.62536 | 801 ft | 67 kts | 42° |
| 2026-04-30 20:06 | 51.52799 | 7.62619 | 967 ft | 78 kts | 343° |
| 2026-04-30 20:07 | 51.53285 | 7.62080 | 1054 ft | 92 kts | 321° |
| 2026-04-30 20:07 | 51.53357 | 7.61141 | 1177 ft | 94 kts | 238° |
| 2026-04-30 20:07 | 51.52593 | 7.59249 | 1344 ft | 97 kts | 230° |
| 2026-04-30 20:08 | 51.52228 | 7.58362 | 1280 ft | 91 kts | 230° |
| 2026-04-30 20:08 | 51.51816 | 7.57732 | 1242 ft | 74 kts | 189° |
| 2026-04-30 20:08 | 51.51372 | 7.57825 | 1200 ft | 63 kts | 143° |
| 2026-04-30 20:08 | 51.51077 | 7.58345 | 1084 ft | 63 kts | 106° |
| 2026-04-30 20:09 | 51.51103 | 7.59068 | 910 ft | 69 kts | 71° |
| 2026-04-30 20:09 | 51.51350 | 7.59806 | 633 ft | 79 kts | 66° |
| 2026-04-30 20:09 | 51.51836 | 7.61240 | 461 ft | 67 kts | 62° |
| 2026-04-30 20:10 | 51.52415 | 7.62821 | 852 ft | 94 kts | 60° |
| 2026-04-30 20:10 | 51.52974 | 7.63230 | 1156 ft | 101 kts | 350° |
| 2026-04-30 20:10 | 51.53300 | 7.62285 | 1471 ft | 113 kts | 270° |
| 2026-04-30 20:11 | 51.53415 | 7.59453 | 1678 ft | 138 kts | 268° |
| 2026-04-30 20:11 | 51.53342 | 7.57881 | 1706 ft | 145 kts | 258° |
| 2026-04-30 20:11 | 51.53236 | 7.56231 | 1723 ft | 153 kts | 260° |
| 2026-04-30 20:12 | 51.53348 | 7.53007 | 1716 ft | 140 kts | 275° |
| 2026-04-30 20:12 | 51.53470 | 7.51451 | 1714 ft | 138 kts | 273° |
| 2026-04-30 20:12 | 51.53618 | 7.49920 | 1698 ft | 140 kts | 273° |
| 2026-04-30 20:13 | 51.53642 | 7.48380 | 1706 ft | 137 kts | 263° |
| 2026-04-30 20:13 | 51.53617 | 7.46836 | 1705 ft | 140 kts | 264° |
| 2026-04-30 20:13 | 51.53431 | 7.45358 | 1700 ft | 131 kts | 244° |
| 2026-04-30 20:13 | 51.52998 | 7.44132 | 1708 ft | 127 kts | 223° |
| 2026-04-30 20:14 | 51.52490 | 7.42940 | 1695 ft | 128 kts | 223° |
| 2026-04-30 20:14 | 51.51797 | 7.42347 | 1703 ft | 111 kts | 175° |
| 2026-04-30 20:14 | 51.51043 | 7.42306 | 1699 ft | 107 kts | 172° |
| 2026-04-30 20:14 | 51.50349 | 7.42423 | 1697 ft | 94 kts | 143° |
| 2026-04-30 20:15 | 51.49848 | 7.43117 | 1698 ft | 95 kts | 132° |
| 2026-04-30 20:15 | 51.49389 | 7.43860 | 1693 ft | 92 kts | 128° |
| 2026-04-30 20:15 | 51.48982 | 7.44629 | 1695 ft | 90 kts | 124° |
| 2026-04-30 20:15 | 51.48873 | 7.45602 | 1693 ft | 92 kts | 94° |
| 2026-04-30 20:16 | 51.48863 | 7.46715 | 1564 ft | 104 kts | 96° |
| 2026-04-30 20:16 | 51.48822 | 7.47931 | 1456 ft | 114 kts | 96° |
| 2026-04-30 20:16 | 51.48758 | 7.49205 | 1336 ft | 113 kts | 97° |
| 2026-04-30 20:16 | 51.48732 | 7.50416 | 1208 ft | 104 kts | 86° |
| 2026-04-30 20:17 | 51.48787 | 7.51544 | 1062 ft | 101 kts | 86° |
| 2026-04-30 20:17 | 51.48988 | 7.52553 | 1017 ft | 90 kts | 68° |
| 2026-04-30 20:17 | 51.49190 | 7.53430 | 1006 ft | 78 kts | 72° |
| 2026-04-30 20:17 | 51.49474 | 7.54106 | 1003 ft | 72 kts | 38° |
| 2026-04-30 20:18 | 51.49964 | 7.54133 | 1029 ft | 74 kts | 334° |
| 2026-04-30 20:18 | 51.50127 | 7.53413 | 1074 ft | 75 kts | 245° |
| 2026-04-30 20:18 | 51.49744 | 7.53311 | 1074 ft | 64 kts | 122° |
| 2026-04-30 20:18 | 51.49651 | 7.53988 | 1119 ft | 60 kts | 92° |
| 2026-04-30 20:19 | 51.49700 | 7.54662 | 1107 ft | 65 kts | 78° |
| 2026-04-30 20:19 | 51.49859 | 7.55403 | 1038 ft | 71 kts | 70° |
| 2026-04-30 20:19 | 51.50071 | 7.56096 | 961 ft | 68 kts | 63° |
| 2026-04-30 20:19 | 51.50320 | 7.56732 | 897 ft | 68 kts | 64° |
| 2026-04-30 20:20 | 51.50551 | 7.57415 | 833 ft | 70 kts | 66° |
| 2026-04-30 20:20 | 51.50761 | 7.58095 | 793 ft | 68 kts | 65° |
| 2026-04-30 20:20 | 51.50984 | 7.58767 | 688 ft | 68 kts | 63° |
| 2026-04-30 20:20 | 51.51207 | 7.59423 | 612 ft | 67 kts | 66° |
| 2026-04-30 20:21 | 51.51428 | 7.60093 | 525 ft | 68 kts | 68° |
| 2026-04-30 20:21 | 51.51672 | 7.60760 | 435 ft | 69 kts | 65° |
| 2026-04-30 20:21 | 51.51885 | 7.61387 | 413 ft | 59 kts | 63° |
| 2026-04-30 20:21 | 51.52098 | 7.61946 | 515 ft | 68 kts | 63° |
| 2026-04-30 20:22 | 51.52328 | 7.62650 | 768 ft | 73 kts | 60° |
| 2026-04-30 20:22 | 51.52630 | 7.63295 | 1059 ft | 75 kts | 59° |
| 2026-04-30 20:22 | 51.53110 | 7.63474 | 1377 ft | 88 kts | 340° |
| 2026-04-30 20:22 | 51.53662 | 7.62779 | 1588 ft | 105 kts | 299° |